Time;durP1;ratioP1;P1;durP2;ratioP2;P2;SDS_P1;SDS_P2;PMS_P1;PMS_P2;Temp;Humidity;BMP_temperature;BMP_pressure;BME280_temperature;BME280_humidity;BME280_pressure;Samples;Min_cycle;Max_cycle;Signal;HPM_P1;HPM_P2
2021/01/07 00:02:04;;;;;;;;;62.50;45.00;;;;;7.09;82.15;101922.97;4362376;32;12549;-77
2021/01/07 00:05:00;;;;;;;;;44.75;41.00;;;;;7.19;81.88;101922.09;4363233;32;12437;-78
2021/01/07 00:07:55;;;;;;;;;66.50;47.75;;;;;7.18;81.96;101931.47;4372812;32;12468;-77
2021/01/07 00:10:51;;;;;;;;;63.75;47.25;;;;;7.19;81.87;101930.34;4362750;32;13098;-77
2021/01/07 00:13:46;;;;;;;;;58.00;47.00;;;;;7.19;81.93;101928.44;4372812;32;12554;-77
2021/01/07 00:16:38;;;;;;;;;60.50;46.00;;;;;7.26;81.52;101941.91;4363415;32;12396;-77
2021/01/07 00:19:34;;;;;;;;;47.50;43.50;;;;;7.21;81.80;101936.44;4373213;32;12419;-77
2021/01/07 00:22:29;;;;;;;;;36.50;30.50;;;;;7.25;81.47;101938.34;4364197;32;12479;-77
2021/01/07 00:25:25;;;;;;;;;33.75;30.50;;;;;7.21;81.65;101936.44;4360964;32;12437;-77
2021/01/07 00:28:22;;;;;;;;;33.75;27.25;;;;;7.23;82.05;101928.72;4357407;33;12488;-77
2021/01/07 00:30:51;;;;;;;;;26.50;26.50;;;;;7.20;82.19;101932.81;4359026;33;13134;-78
2021/01/07 00:33:47;;;;;;;;;41.25;30.25;;;;;7.15;82.41;101934.78;4358266;32;12415;-77
2021/01/07 00:36:42;;;;;;;;;34.75;31.75;;;;;7.15;82.47;101934.78;4372014;32;12356;-77
2021/01/07 00:39:38;;;;;;;;;35.00;33.75;;;;;7.29;82.22;101924.03;4358357;32;12422;-77
2021/01/07 00:42:34;;;;;;;;;35.75;27.00;;;;;7.19;82.31;101930.34;4354741;32;12421;-78
2021/01/07 00:45:30;;;;;;;;;31.75;30.25;;;;;7.33;82.11;101933.38;4373398;32;12468;-77
2021/01/07 00:48:25;;;;;;;;;46.75;43.50;;;;;7.36;81.76;101922.63;4364510;32;12403;-78
2021/01/07 00:50:53;;;;;;;;;50.25;41.75;;;;;7.41;81.82;101924.53;4361704;32;12398;-77
2021/01/07 00:53:49;;;;;;;;;31.00;28.75;;;;;7.38;81.89;101927.88;4359913;32;13192;-78
2021/01/07 00:56:45;;;;;;;;;30.50;30.00;;;;;7.38;81.80;101919.59;4350544;32;12476;-77
2021/01/07 00:59:35;;;;;;;;;70.25;52.25;;;;;7.33;81.88;101909.41;4364254;32;12426;-77
2021/01/07 01:02:31;;;;;;;;;45.00;40.25;;;;;7.39;81.60;101911.06;4365006;32;12472;-77
2021/01/07 01:05:26;;;;;;;;;30.75;30.75;;;;;7.37;81.06;101905.03;4375301;32;13095;-77
2021/01/07 01:08:22;;;;;;;;;25.50;25.50;;;;;7.43;80.68;101900.31;4376598;32;12403;-77
2021/01/07 01:11:18;;;;;;;;;26.50;24.25;;;;;7.36;80.61;101903.38;4376029;32;12583;-77
2021/01/07 01:14:18;;;;;;;;;25.25;24.50;;;;;7.26;80.75;101908.88;4356224;32;12428;-77
2021/01/07 01:17:13;;;;;;;;;30.50;30.50;;;;;7.29;80.33;101900.09;4352406;32;13173;-77
2021/01/07 01:19:42;;;;;;;;;24.50;23.25;;;;;7.08;80.97;101890.22;4376901;32;12413;-77
2021/01/07 01:22:39;;;;;;;;;24.25;23.25;;;;;7.12;80.62;101896.81;4359507;33;12422;-77
2021/01/07 01:25:10;;;;;;;;;32.25;30.25;;;;;7.04;80.61;101891.88;4346774;33;12480;-77
2021/01/07 01:28:05;;;;;;;;;38.00;32.25;;;;;7.07;80.17;101880.34;4370217;32;12465;-77
2021/01/07 01:31:01;;;;;;;;;21.25;15.00;;;;;7.13;80.00;101885.53;4352410;32;12535;-76
2021/01/07 01:33:56;;;;;;;;;27.25;26.50;;;;;6.86;80.55;101877.59;4359954;32;12481;-76
2021/01/07 01:36:52;;;;;;;;;24.50;24.50;;;;;6.75;80.73;101873.22;4350646;32;12487;-77
2021/01/07 01:39:42;;;;;;;;;22.00;21.25;;;;;6.78;80.75;101863.59;4349840;32;12483;-76
2021/01/07 01:42:38;;;;;;;;;25.00;25.00;;;;;6.86;80.75;101861.09;4349299;32;12397;-77
2021/01/07 01:45:06;;;;;;;;;25.25;24.25;;;;;6.84;80.54;101863.31;4375966;32;12395;-77
2021/01/07 01:48:02;;;;;;;;;26.25;26.00;;;;;6.90;80.43;101869.59;4373126;32;13096;-76
2021/01/07 01:50:32;;;;;;;;;26.25;25.75;;;;;6.77;80.83;101870.19;4362959;32;12471;-77
2021/01/07 01:53:30;;;;;;;;;31.50;31.00;;;;;6.70;81.03;101862.22;4372114;32;12412;-77
2021/01/07 01:56:27;;;;;;;;;19.50;19.25;;;;;6.80;80.97;101864.13;4374939;32;12433;-76
2021/01/07 01:59:26;;;;;;;;;28.50;27.25;;;;;6.81;80.75;101852.84;4362112;32;12380;-77
2021/01/07 02:02:22;;;;;;;;;31.25;31.25;;;;;6.90;80.21;101845.72;4363309;32;12441;-77
2021/01/07 02:05:17;;;;;;;;;29.25;29.25;;;;;6.91;80.20;101858.34;4363926;32;12420;-76
2021/01/07 02:08:15;;;;;;;;;25.75;25.75;;;;;6.86;80.31;101855.59;4363908;32;13070;-77
2021/01/07 02:11:12;;;;;;;;;28.00;27.75;;;;;7.02;79.89;101850.06;4349441;32;12562;-77
2021/01/07 02:13:43;;;;;;;;;31.50;31.50;;;;;6.97;80.09;101856.41;4360822;32;12483;-77
2021/01/07 02:16:39;;;;;;;;;29.75;28.50;;;;;7.06;79.86;101845.69;4360834;32;12466;-76
2021/01/07 02:19:35;;;;;;;;;32.50;31.50;;;;;7.03;79.78;101846.22;4360007;32;11822;-77
2021/01/07 02:22:03;;;;;;;;;35.00;34.00;;;;;7.04;79.73;101853.38;4359275;32;12428;-77
2021/01/07 02:24:58;;;;;;;;;34.25;28.75;;;;;7.09;79.45;101853.34;4358356;32;12559;-77
2021/01/07 02:27:54;;;;;;;;;29.25;28.00;;;;;7.00;79.88;101853.09;4349163;33;12625;-77
2021/01/07 02:30:31;;;;;;;;;27.50;27.50;;;;;7.00;79.98;101844.03;4360664;32;12470;-76
2021/01/07 02:32:59;;;;;;;;;26.75;26.00;;;;;7.06;79.86;101842.94;4347512;33;12427;-76
2021/01/07 02:35:27;;;;;;;;;29.75;29.50;;;;;6.93;80.00;101836.87;4360742;32;12486;-77
2021/01/07 02:38:22;;;;;;;;;31.00;29.00;;;;;7.05;79.80;101833.81;4367910;32;12445;-76
2021/01/07 02:41:18;;;;;;;;;23.25;23.25;;;;;7.11;79.79;101838.22;4365636;32;12434;-77
2021/01/07 02:44:13;;;;;;;;;24.25;24.25;;;;;7.11;79.70;101840.97;4359289;32;12436;-77
2021/01/07 02:47:09;;;;;;;;;24.50;24.50;;;;;7.11;79.87;101837.37;4362083;32;12424;-78
2021/01/07 02:50:06;;;;;;;;;29.50;29.00;;;;;7.08;79.93;101847.03;4373247;32;12404;-77
2021/01/07 02:53:02;;;;;;;;;34.00;31.75;;;;;7.24;79.57;101854.13;4363808;32;12470;-76
2021/01/07 02:55:38;;;;;;;;;28.75;28.75;;;;;7.15;79.67;101842.06;4361888;32;12416;-77
2021/01/07 02:58:05;;;;;;;;;32.25;32.25;;;;;7.25;79.55;101846.69;4375703;32;12441;-77
2021/01/07 03:01:01;;;;;;;;;26.00;26.00;;;;;7.23;79.78;101848.91;4372850;32;12440;-76
2021/01/07 03:03:56;;;;;;;;;30.50;30.25;;;;;7.18;79.93;101838.75;4368183;32;12417;-77
2021/01/07 03:06:24;;;;;;;;;31.00;30.50;;;;;7.09;80.48;101834.09;4359975;32;12387;-77
2021/01/07 03:09:19;;;;;;;;;31.25;29.75;;;;;7.15;80.31;101825.56;4347342;33;12521;-77
2021/01/07 03:11:47;;;;;;;;;24.25;24.25;;;;;7.13;80.48;101827.78;4358322;32;12425;-77
2021/01/07 03:14:43;;;;;;;;;33.25;28.75;;;;;7.28;80.20;101837.06;4358367;32;12462;-77
2021/01/07 03:17:38;;;;;;;;;28.25;23.25;;;;;7.36;80.15;101839.22;4364611;32;12394;-77
2021/01/07 03:20:34;;;;;;;;;52.75;45.50;;;;;7.38;80.03;101832.34;4372716;32;12375;-77
2021/01/07 03:23:29;;;;;;;;;52.75;45.25;;;;;7.31;80.22;101833.75;4368838;32;12458;-76
2021/01/07 03:26:25;;;;;;;;;50.25;45.00;;;;;7.41;80.04;101837.28;4372016;32;12597;-77
2021/01/07 03:28:52;;;;;;;;;38.75;37.25;;;;;7.43;80.10;101837.81;4374628;32;12411;-77
2021/01/07 03:31:22;;;;;;;;;30.50;26.00;;;;;7.42;80.22;101836.16;4373437;32;12436;-76
2021/01/07 03:33:54;;;;;;;;;33.75;29.75;;;;;7.51;79.91;101828.16;4348533;32;13170;-77
2021/01/07 03:36:49;;;;;;;;;27.50;27.50;;;;;7.53;80.01;101826.78;4362912;32;13072;-76
2021/01/07 03:39:45;;;;;;;;;31.00;31.00;;;;;7.50;80.12;101826.50;4360825;32;12389;-76
2021/01/07 03:42:12;;;;;;;;;27.00;27.00;;;;;7.55;80.26;101825.66;4361725;32;12389;-76
2021/01/07 03:45:09;;;;;;;;;27.00;26.50;;;;;7.58;80.42;101825.91;4374123;32;12472;-76
2021/01/07 03:48:05;;;;;;;;;24.00;24.00;;;;;7.55;80.77;101814.66;4366374;32;12472;-76
2021/01/07 03:50:37;;;;;;;;;31.25;29.25;;;;;7.66;80.51;101816.22;4373957;32;12529;-76
2021/01/07 03:53:32;;;;;;;;;29.00;28.50;;;;;7.72;80.43;101810.41;4372766;32;12476;-76
2021/01/07 03:56:28;;;;;;;;;29.75;28.75;;;;;7.74;80.33;101807.38;4373761;32;13092;-77
2021/01/07 03:59:24;;;;;;;;;33.25;33.25;;;;;7.78;80.33;101794.69;4374265;32;12423;-77
2021/01/07 04:02:19;;;;;;;;;28.25;27.75;;;;;7.85;80.23;101806.22;4371063;32;12485;-77
2021/01/07 04:04:46;;;;;;;;;29.00;29.00;;;;;7.99;79.86;101795.38;4372263;32;12523;-76
2021/01/07 04:07:20;;;;;;;;;28.50;28.50;;;;;7.84;80.34;101790.81;4374605;32;12370;-76
2021/01/07 04:10:16;;;;;;;;;26.00;24.25;;;;;7.78;80.72;101792.75;4362876;32;12397;-76
2021/01/07 04:12:43;;;;;;;;;28.75;27.25;;;;;7.78;81.22;101795.50;4361930;32;12409;-76
2021/01/07 04:15:39;;;;;;;;;30.00;28.50;;;;;7.81;81.24;101797.69;4362712;32;12356;-76
2021/01/07 04:18:34;;;;;;;;;32.00;31.75;;;;;7.75;81.68;101809.87;4369324;32;13112;-76
2021/01/07 04:21:30;;;;;;;;;42.00;34.00;;;;;7.92;81.17;101806.72;4373675;32;12499;-77
2021/01/07 04:24:27;;;;;;;;;30.75;29.75;;;;;7.86;81.10;101805.09;4373917;32;12337;-76
2021/01/07 04:27:22;;;;;;;;;32.50;32.25;;;;;7.91;81.21;101787.72;4375401;32;12355;-77
2021/01/07 04:30:18;;;;;;;;;40.50;29.00;;;;;7.97;80.69;101792.91;4374936;32;12332;-76
2021/01/07 04:33:14;;;;;;;;;29.00;29.00;;;;;7.98;80.67;101797.31;4374577;32;13110;-76
2021/01/07 04:35:42;;;;;;;;;55.25;48.25;;;;;7.93;80.72;101802.03;4360943;32;12506;-77
2021/01/07 04:38:37;;;;;;;;;52.50;46.25;;;;;7.95;80.55;101797.88;4371420;32;12473;-77
2021/01/07 04:41:33;;;;;;;;;32.50;32.25;;;;;7.95;80.65;101797.88;4356829;32;12449;-77
2021/01/07 04:44:30;;;;;;;;;24.75;24.00;;;;;8.01;80.29;101780.19;4372435;32;12454;-75
2021/01/07 04:47:26;;;;;;;;;29.50;25.75;;;;;8.04;80.13;101765.03;4365683;32;12479;-77
2021/01/07 04:50:21;;;;;;;;;21.25;21.25;;;;;7.90;80.67;101778.66;4364748;32;12446;-76
2021/01/07 04:52:49;;;;;;;;;25.25;23.75;;;;;7.98;80.32;101791.81;4375787;32;12397;-76
2021/01/07 04:55:25;;;;;;;;;32.25;29.25;;;;;7.97;79.88;101790.13;4363994;32;13063;-77
2021/01/07 04:58:20;;;;;;;;;48.50;44.50;;;;;8.02;79.69;101783.78;4374922;32;12462;-77
2021/01/07 05:01:16;;;;;;;;;31.75;31.75;;;;;7.92;79.91;101776.41;4370478;32;12356;-76
2021/01/07 05:04:17;;;;;;;;;36.00;36.00;;;;;7.89;79.92;101762.37;4351946;32;12458;-77
2021/01/07 05:07:18;;;;;;;;;21.25;20.25;;;;;7.89;80.00;101762.37;4360963;32;12392;-76
2021/01/07 05:09:46;;;;;;;;;24.75;24.75;;;;;7.64;80.37;101750.44;4347707;33;12353;-76
2021/01/07 05:12:42;;;;;;;;;18.75;17.50;;;;;7.71;80.20;101733.59;4350909;32;12397;-76
2021/01/07 05:15:41;;;;;;;;;19.25;18.75;;;;;7.69;80.05;101733.91;4349559;33;12416;-76
2021/01/07 05:18:36;;;;;;;;;17.25;17.25;;;;;7.68;80.03;101732.25;4351441;32;12381;-76
2021/01/07 05:21:33;;;;;;;;;16.25;16.25;;;;;7.62;80.42;101729.81;4360980;32;12435;-77
2021/01/07 05:24:30;;;;;;;;;16.50;16.50;;;;;7.58;80.50;101735.06;4350067;33;12399;-76
2021/01/07 05:27:26;;;;;;;;;18.50;17.25;;;;;7.75;79.96;101735.50;4359458;32;12335;-76
2021/01/07 05:29:58;;;;;;;;;21.00;21.00;;;;;7.75;79.79;101742.94;4357268;32;12484;-77
2021/01/07 05:33:00;;;;;;;;;40.00;38.25;;;;;7.70;80.14;101745.72;4375846;32;12490;-77
2021/01/07 05:35:56;;;;;;;;;57.25;49.00;;;;;7.73;80.03;101753.41;4365100;32;12500;-77
2021/01/07 05:38:55;;;;;;;;;43.25;39.75;;;;;7.78;79.89;101750.62;4352058;32;12486;-77
2021/01/07 05:41:53;;;;;;;;;35.50;35.50;;;;;7.80;79.84;101745.66;4362928;32;12417;-77
2021/01/07 05:44:49;;;;;;;;;48.50;44.00;;;;;7.73;79.86;101743.22;4357682;32;13153;-76
2021/01/07 05:47:51;;;;;;;;;40.75;35.25;;;;;7.81;79.68;101744.53;4373773;32;12424;-76
2021/01/07 05:50:48;;;;;;;;;14.00;14.00;;;;;7.89;79.32;101749.44;4373948;32;12581;-77
2021/01/07 05:53:45;;;;;;;;;20.25;19.50;;;;;7.91;79.27;101757.44;4373162;32;12331;-77
2021/01/07 05:56:44;;;;;;;;;18.00;17.50;;;;;7.93;79.17;101742.25;4364249;32;12467;-76
2021/01/07 05:59:41;;;;;;;;;21.50;19.75;;;;;7.93;79.25;101725.72;4375200;32;12396;-77
2021/01/07 06:02:35;;;;;;;;;16.75;15.50;;;;;7.85;79.50;101723.59;4366752;32;12401;-77
2021/01/07 06:05:30;;;;;;;;;13.25;13.25;;;;;7.95;79.20;101729.00;4359033;33;12411;-77
2021/01/07 06:08:27;;;;;;;;;10.00;10.00;;;;;8.01;78.91;101736.13;4359291;32;12489;-76
2021/01/07 06:11:24;;;;;;;;;19.00;18.75;;;;;8.00;78.88;101717.13;4349486;33;12395;-80
2021/01/07 06:14:02;;;;;;;;;15.25;15.25;;;;;8.03;79.46;101722.88;4366014;32;12388;-79
2021/01/07 06:16:44;;;;;;;;;16.00;16.00;;;;;8.33;79.33;101719.03;4366467;32;12361;-78
2021/01/07 06:19:40;;;;;;;;;24.50;23.00;;;;;8.69;82.09;101720.63;4370240;32;12979;-80
2021/01/07 06:22:39;;;;;;;;;18.25;18.25;;;;;8.80;80.12;101709.16;4378723;32;12291;-80
2021/01/07 06:25:29;;;;;;;;;13.75;13.75;;;;;8.94;79.67;101711.22;4387232;32;12252;-80
2021/01/07 06:27:56;;;;;;;;;19.50;19.50;;;;;9.01;80.72;101711.69;4361654;32;12324;-80
2021/01/07 06:30:43;;;;;;;;;12.50;12.00;;;;;9.06;79.56;101701.41;4375255;32;12393;-80
2021/01/07 06:33:19;;;;;;;;;20.50;20.00;;;;;9.21;82.78;101694.84;4373939;32;12388;-80
2021/01/07 06:35:47;;;;;;;;;18.50;18.50;;;;;9.21;79.61;101697.63;4363058;32;12402;-80
2021/01/07 06:38:33;;;;;;;;;22.00;22.00;;;;;9.20;79.06;101698.72;4373758;32;12415;-80
2021/01/07 06:41:29;;;;;;;;;20.25;20.25;;;;;9.15;79.04;101707.91;4359516;32;12421;-80
2021/01/07 06:44:26;;;;;;;;;19.50;19.50;;;;;9.51;79.00;101698.28;4357691;32;12409;-76
2021/01/07 06:47:17;;;;;;;;;25.00;25.00;;;;;9.45;78.00;101703.06;4348850;32;12984;-77
2021/01/07 06:50:13;;;;;;;;;29.50;26.50;;;;;9.21;76.09;101705.91;4347878;33;12358;-76
2021/01/07 06:53:09;;;;;;;;;26.75;26.50;;;;;9.06;76.31;101706.09;4352539;32;12405;-76
2021/01/07 06:56:16;;;;;;;;;23.25;23.25;;;;;9.04;76.64;101697.28;4372826;32;12427;-76
2021/01/07 06:59:07;;;;;;;;;23.25;23.25;;;;;8.96;76.50;101692.41;4359999;32;12990;-76
2021/01/07 07:01:50;;;;;;;;;34.00;32.50;;;;;8.83;77.22;101699.50;4361942;32;12409;-75
2021/01/07 07:04:47;;;;;;;;;29.25;27.25;;;;;8.91;77.20;101698.84;4363394;32;12389;-76
2021/01/07 07:07:36;;;;;;;;;32.25;32.25;;;;;8.98;77.01;101695.72;4375696;32;12403;-76
2021/01/07 07:10:26;;;;;;;;;36.75;36.00;;;;;8.90;77.15;101695.25;4363198;32;12471;-77
2021/01/07 07:13:28;;;;;;;;;35.50;35.50;;;;;8.99;77.05;101694.59;4372224;32;12457;-76
2021/01/07 07:16:24;;;;;;;;;43.00;40.00;;;;;8.98;76.90;101690.22;4363306;32;12480;-75
2021/01/07 07:19:10;;;;;;;;;43.50;40.75;;;;;8.99;76.85;101700.12;4361005;32;12393;-76
2021/01/07 07:21:52;;;;;;;;;51.25;42.75;;;;;9.07;76.44;101703.03;4348062;32;12426;-75
2021/01/07 07:24:53;;;;;;;;;63.00;51.75;;;;;8.96;76.89;101701.50;4373954;32;12480;-75
2021/01/07 07:27:49;;;;;;;;;54.25;47.25;;;;;8.97;77.00;101702.34;4387314;32;12397;-77
2021/01/07 07:30:47;;;;;;;;;37.75;37.00;;;;;9.02;76.95;101705.03;4359461;32;12392;-76
2021/01/07 07:33:38;;;;;;;;;40.25;37.25;;;;;8.91;77.29;101693.31;4363051;32;12533;-77
2021/01/07 07:36:08;;;;;;;;;32.25;32.25;;;;;8.91;77.57;101693.31;4362815;32;12412;-78
2021/01/07 07:39:06;;;;;;;;;55.00;47.00;;;;;9.01;76.97;101693.19;4353720;32;12323;-77
2021/01/07 07:42:08;;;;;;;;;39.00;37.25;;;;;9.02;76.84;101682.97;4363894;32;12625;-77
2021/01/07 07:45:05;;;;;;;;;31.25;30.00;;;;;9.01;76.93;101686.84;4365108;32;12355;-77
2021/01/07 07:48:02;;;;;;;;;41.75;40.00;;;;;8.94;76.69;101678.94;4365716;32;12392;-77
2021/01/07 07:51:13;;;;;;;;;58.50;47.75;;;;;9.00;76.72;101668.66;4359599;32;12446;-77
2021/01/07 07:54:11;;;;;;;;;45.50;40.75;;;;;9.02;76.75;101664.47;4356847;32;12471;-77
2021/01/07 07:57:07;;;;;;;;;34.50;34.00;;;;;9.05;76.47;101654.78;4381574;32;12409;-77
2021/01/07 08:00:17;;;;;;;;;33.50;33.50;;;;;8.99;76.68;101654.03;4373939;32;12400;-77
2021/01/07 08:03:12;;;;;;;;;40.25;39.25;;;;;9.00;76.73;101657.63;4384546;32;12450;-76
2021/01/07 08:06:09;;;;;;;;;35.50;34.25;;;;;9.03;76.62;101668.03;4370861;32;12421;-76
2021/01/07 08:08:36;;;;;;;;;24.75;24.75;;;;;8.99;76.67;101651.28;4361885;32;12539;-77
2021/01/07 08:11:40;;;;;;;;;22.75;22.75;;;;;8.91;76.84;101651.94;4391973;32;12503;-76
2021/01/07 08:14:39;;;;;;;;;24.00;24.00;;;;;9.02;76.65;101649.84;4361129;32;12338;-77
2021/01/07 08:17:07;;;;;;;;;31.50;31.25;;;;;9.03;76.50;101643.22;4377773;32;12336;-77
2021/01/07 08:20:03;;;;;;;;;41.75;39.75;;;;;9.06;76.64;101639.87;4390334;32;12398;-76
2021/01/07 08:22:58;;;;;;;;;41.00;38.75;;;;;9.14;76.45;101636.44;4389890;32;12426;-76
2021/01/07 08:25:54;;;;;;;;;39.75;39.00;;;;;9.11;76.62;101635.09;4362076;32;12421;-77
2021/01/07 08:28:51;;;;;;;;;40.75;39.50;;;;;9.13;76.57;101627.34;4359945;32;12397;-76
2021/01/07 08:31:21;;;;;;;;;51.00;44.50;;;;;9.18;76.40;101627.25;4382890;32;12457;-77
2021/01/07 08:34:19;;;;;;;;;58.00;46.75;;;;;9.07;76.94;101625.78;4363293;32;13165;-77
2021/01/07 08:37:19;;;;;;;;;55.75;47.75;;;;;9.15;76.79;101613.25;4366864;32;13049;-77
2021/01/07 08:40:15;;;;;;;;;71.50;59.00;;;;;9.16;76.62;101610.19;4379236;32;12573;-77
2021/01/07 08:43:11;;;;;;;;;67.50;54.50;;;;;9.19;76.77;101611.50;4373385;32;12419;-78
2021/01/07 08:46:41;;;;;;;;;52.75;46.00;;;;;9.12;77.36;101595.34;4391757;32;12477;-77
2021/01/07 08:49:13;;;;;;;;;48.00;41.75;;;;;9.22;77.23;101599.06;4375222;32;12450;-77
2021/01/07 08:52:09;;;;;;;;;57.00;48.50;;;;;9.24;77.26;101588.53;4375628;32;12469;-77
2021/01/07 08:54:53;;;;;;;;;51.75;43.25;;;;;9.22;77.49;101582.50;4362921;32;12470;-78
2021/01/07 08:57:48;;;;;;;;;32.50;32.50;;;;;9.35;77.18;101581.72;4384242;32;12362;-78
2021/01/07 09:00:47;;;;;;;;;44.25;40.75;;;;;9.26;77.75;101586.28;4358170;32;12493;-78
2021/01/07 09:03:42;;;;;;;;;49.75;44.50;;;;;9.38;77.54;101578.38;4369443;32;12474;-77
2021/01/07 09:06:38;;;;;;;;;31.75;31.75;;;;;9.47;77.27;101565.53;4379464;32;13065;-77
2021/01/07 09:09:38;;;;;;;;;32.25;32.25;;;;;9.47;77.60;101568.28;4378257;32;12538;-76
2021/01/07 09:12:34;;;;;;;;;22.25;22.25;;;;;9.57;77.72;101557.06;4359928;33;12453;-77
2021/01/07 09:15:30;;;;;;;;;37.75;36.75;;;;;9.59;78.07;101546.53;4366555;32;12264;-78
2021/01/07 09:18:25;;;;;;;;;34.50;34.50;;;;;9.60;78.41;101541.84;4365584;32;13079;-77
2021/01/07 09:20:53;;;;;;;;;27.75;27.00;;;;;9.67;78.53;101532.03;4376684;32;12955;-77
2021/01/07 09:23:50;;;;;;;;;20.50;20.50;;;;;9.66;78.80;101535.91;4374627;32;12301;-76
2021/01/07 09:26:46;;;;;;;;;19.25;18.25;;;;;9.81;78.62;101522.94;4352546;32;12435;-76
2021/01/07 09:29:17;;;;;;;;;20.75;20.75;;;;;9.88;78.70;101526.91;4347507;33;12385;-77
2021/01/07 09:32:14;;;;;;;;;22.50;22.50;;;;;9.90;78.80;101516.41;4350414;33;12369;-77
2021/01/07 09:35:11;;;;;;;;;23.00;23.00;;;;;9.86;79.33;101514.53;4383916;32;12377;-77
2021/01/07 09:38:07;;;;;;;;;26.25;19.00;;;;;9.99;79.06;101502.69;4377904;32;12352;-78
2021/01/07 09:40:52;;;;;;;;;24.00;22.50;;;;;10.07;78.98;101498.37;4389737;32;12411;-78
2021/01/07 09:43:20;;;;;;;;;23.75;22.25;;;;;10.13;79.18;101491.63;4376250;32;12467;-79
2021/01/07 09:46:01;;;;;;;;;22.50;21.00;;;;;10.21;78.92;101483.44;4374446;32;13045;-77
2021/01/07 09:48:57;;;;;;;;;29.00;26.75;;;;;10.28;78.99;101478.34;4364122;32;11978;-78
2021/01/07 09:51:54;;;;;;;;;38.00;37.25;;;;;10.31;79.49;101460.28;4373883;32;12397;-76
2021/01/07 09:54:49;;;;;;;;;34.75;34.75;;;;;10.38;79.54;101446.06;4374855;32;12393;-78
2021/01/07 09:57:49;;;;;;;;;24.00;24.00;;;;;10.52;79.14;101450.41;4364438;32;12537;-78
2021/01/07 10:00:44;;;;;;;;;18.00;18.00;;;;;10.51;79.54;101446.03;4375733;32;12346;-78
2021/01/07 10:03:40;;;;;;;;;16.50;16.50;;;;;10.55;79.70;101441.47;4376615;32;12901;-76
2021/01/07 10:06:35;;;;;;;;;19.25;19.25;;;;;10.74;79.35;101423.91;4374734;32;11985;-77
2021/01/07 10:09:05;;;;;;;;;15.75;15.75;;;;;10.74;79.51;101421.97;4373975;32;11987;-77
2021/01/07 10:11:34;;;;;;;;;23.50;22.75;;;;;10.83;79.12;101411.75;4373996;32;11718;-76
2021/01/07 10:14:02;;;;;;;;;17.75;16.75;;;;;10.89;79.15;101408.84;4361785;32;12445;-76
2021/01/07 10:16:30;;;;;;;;;22.75;22.75;;;;;10.93;79.02;101405.16;4376733;32;11842;-76
2021/01/07 10:18:57;;;;;;;;;20.50;20.50;;;;;10.86;79.29;101402.81;4360166;32;11727;-76
2021/01/07 10:21:25;;;;;;;;;18.75;18.75;;;;;10.96;78.95;101398.16;4374501;32;11775;-76
2021/01/07 10:23:53;;;;;;;;;12.00;10.75;;;;;10.95;79.22;101388.22;4374855;32;11681;-75
2021/01/07 10:26:22;;;;;;;;;16.50;15.50;;;;;10.99;79.11;101375.41;4375539;32;11546;-75
2021/01/07 10:28:51;;;;;;;;;15.25;15.25;;;;;10.94;79.40;101378.28;4374289;32;11756;-75
2021/01/07 10:31:19;;;;;;;;;14.75;13.50;;;;;11.09;78.99;101370.41;4360020;32;11710;-76
2021/01/07 10:34:04;;;;;;;;;18.00;18.00;;;;;11.08;79.12;101363.22;4374624;32;11919;-76
2021/01/07 10:37:02;;;;;;;;;19.75;18.50;;;;;11.17;78.89;101354.16;4362886;32;11898;-76
2021/01/07 10:39:40;;;;;;;;;17.50;17.00;;;;;11.19;79.03;101344.38;4361420;32;11925;-77
2021/01/07 10:42:36;;;;;;;;;19.50;19.00;;;;;11.25;78.86;101317.38;4367200;32;11936;-77
2021/01/07 10:45:20;;;;;;;;;34.50;32.25;;;;;11.26;78.97;101292.13;4368234;32;11880;-77
2021/01/07 10:48:21;;;;;;;;;26.50;25.75;;;;;11.37;79.02;101287.13;4351997;32;12335;-76
2021/01/07 10:51:10;;;;;;;;;14.75;14.75;;;;;11.39;79.22;101282.06;4365606;32;12545;-76
2021/01/07 10:53:59;;;;;;;;;14.50;14.50;;;;;11.48;78.89;101291.22;4363475;32;11562;-76
2021/01/07 10:56:56;;;;;;;;;21.00;21.00;;;;;11.21;79.80;101283.16;4364321;32;11307;-76
2021/01/07 10:59:37;;;;;;;;;15.25;15.25;;;;;11.51;79.10;101282.28;4363870;32;11544;-76
2021/01/07 11:03:08;;;;;;;;;16.50;16.50;;;;;11.55;78.67;101276.91;4364449;32;11533;-76
2021/01/07 11:05:39;;;;;;;;;18.00;18.00;;;;;11.49;79.02;101278.19;4354750;32;11408;-76
2021/01/07 11:08:44;;;;;;;;;17.25;17.00;;;;;11.33;79.43;101261.19;4355169;32;11512;-77
2021/01/07 11:11:26;;;;;;;;;15.25;15.25;;;;;11.59;78.64;101261.28;4353400;32;11438;-76
2021/01/07 11:14:13;;;;;;;;;19.50;19.50;;;;;11.52;78.87;101249.84;4352281;32;11378;-75
2021/01/07 11:16:46;;;;;;;;;18.75;18.75;;;;;11.61;78.51;101242.38;4365961;32;11426;-77
2021/01/07 11:19:20;;;;;;;;;14.00;14.00;;;;;11.63;78.18;101237.31;4365799;32;11338;-76
2021/01/07 11:22:25;;;;;;;;;15.75;15.75;;;;;11.64;77.92;101230.63;4358479;32;11430;-77
2021/01/07 11:25:21;;;;;;;;;15.50;15.50;;;;;11.62;78.10;101211.56;4349143;32;11359;-77
2021/01/07 11:28:18;;;;;;;;;14.00;14.00;;;;;11.63;77.84;101207.66;4348209;32;11358;-78
2021/01/07 11:30:46;;;;;;;;;18.75;18.50;;;;;11.79;77.46;101205.19;4368858;32;11855;-77
2021/01/07 11:33:44;;;;;;;;;12.75;12.25;;;;;11.82;77.30;101199.06;4349201;32;11399;-77
2021/01/07 11:36:51;;;;;;;;;15.25;15.25;;;;;11.82;77.15;101193.50;4372767;32;11055;-75
2021/01/07 11:40:03;;;;;;;;;20.50;20.50;;;;;11.87;76.62;101179.47;4359645;32;11052;-76
2021/01/07 11:43:05;;;;;;;;;15.75;15.75;;;;;11.76;77.27;101178.16;4350768;32;11316;-76
2021/01/07 11:45:35;;;;;;;;;16.75;16.75;;;;;11.79;77.12;101176.66;4348525;32;11270;-77
2021/01/07 11:48:33;;;;;;;;;19.25;18.75;;;;;11.61;77.46;101173.09;4372381;32;11367;-77
2021/01/07 11:51:06;;;;;;;;;19.00;19.00;;;;;11.77;77.56;101168.69;4376318;32;11015;-77
2021/01/07 11:54:02;;;;;;;;;19.00;19.00;;;;;11.65;77.91;101160.22;4357084;32;11199;-77
2021/01/07 11:56:59;;;;;;;;;20.25;19.25;;;;;11.56;78.05;101151.09;4372529;32;11458;-78
2021/01/07 11:59:41;;;;;;;;;15.00;14.00;;;;;11.74;77.71;101165.78;4360743;32;11352;-77
2021/01/07 12:02:45;;;;;;;;;24.25;23.50;;;;;11.73;77.53;101164.97;4369916;32;11338;-78
2021/01/07 12:05:26;;;;;;;;;26.75;26.75;;;;;11.68;77.75;101177.00;4362305;32;11316;-78
2021/01/07 12:08:14;;;;;;;;;19.00;19.00;;;;;11.57;77.81;101163.81;4356634;32;11593;-78
2021/01/07 12:11:16;;;;;;;;;25.50;25.50;;;;;11.65;77.76;101169.37;4357211;33;11497;-78
2021/01/07 12:14:13;;;;;;;;;28.25;28.25;;;;;11.65;78.04;101163.81;4365331;32;12192;-77
2021/01/07 12:17:11;;;;;;;;;30.75;30.75;;;;;11.68;77.59;101162.34;4369425;32;11664;-78
2021/01/07 12:20:07;;;;;;;;;27.00;27.00;;;;;11.72;77.89;101155.00;4386558;32;11583;-78
2021/01/07 12:22:44;;;;;;;;;27.00;27.00;;;;;11.81;77.20;101141.16;4358761;33;11743;-79
2021/01/07 12:25:41;;;;;;;;;28.00;28.00;;;;;11.79;76.92;101135.91;4358329;33;11763;-78
2021/01/07 12:28:37;;;;;;;;;29.75;29.75;;;;;11.87;76.53;101134.31;4358308;32;11978;-77
2021/01/07 12:31:36;;;;;;;;;29.50;29.50;;;;;11.83;76.76;101122.28;4357602;33;11769;-78
2021/01/07 12:34:21;;;;;;;;;27.00;27.00;;;;;11.81;76.67;101116.22;4358374;33;11906;-78
2021/01/07 12:37:19;;;;;;;;;34.25;31.00;;;;;11.81;76.55;101117.06;4362693;32;11693;-77
2021/01/07 12:40:19;;;;;;;;;33.50;33.50;;;;;11.80;76.40;101112.63;4377247;32;11949;-77
2021/01/07 12:42:59;;;;;;;;;39.00;36.25;;;;;11.57;77.04;101100.91;4377801;32;11969;-78
2021/01/07 12:45:45;;;;;;;;;29.25;29.25;;;;;11.75;76.62;101093.41;4392332;32;12353;-76
2021/01/07 12:48:14;;;;;;;;;35.00;35.00;;;;;11.73;76.32;101094.84;4376381;32;11942;-77
2021/01/07 12:50:58;;;;;;;;;32.50;32.50;;;;;11.66;76.78;101095.38;4381031;32;11768;-76
2021/01/07 12:53:26;;;;;;;;;29.00;29.00;;;;;11.72;76.64;101096.00;4360254;32;11890;-77
2021/01/07 12:56:29;;;;;;;;;28.75;28.75;;;;;11.73;76.42;101083.75;4360561;32;11866;-76
2021/01/07 12:59:22;;;;;;;;;30.25;30.25;;;;;11.68;76.42;101088.34;4375171;32;11578;-76